South Fork, Wisconsin
Current Conditions -  °F | °C
As of 1:35 PM on Friday 24 Oct 2014 (Local Time) from KRCX Reporting Station
Clear Clear  
Wind Chill: 60°   Ceiling: Unl
Heat Index: 60°   Visibility: 10mi
Dew Point: 51°   Wind: 9mph
Humidity: 72%   Direction: 160°SSE
Pressure: 29.89"   Gusts: NA
Location:  45.5192°N, 90.7243°W
Report Text: KRCX 241835Z AUTO 16008KT 10SM CLR 15/10 A2989 RMK AO2 T01530103
Loading
Personal Weather Stations






























Interactive Weather Map
Tropical Storm Tracking
New forecast layout! Learn more

10-Day Weather Forecast

Advertisements
Track Severe Weather on mobile